Time;durP1;ratioP1;P1;durP2;ratioP2;P2;SDS_P1;SDS_P2;PMS_P1;PMS_P2;Temp;Humidity;BMP_temperature;BMP_pressure;BME280_temperature;BME280_humidity;BME280_pressure;Samples;Min_cycle;Max_cycle;Signal;HPM_P1;HPM_P2
2022/05/14 00:01:58;;;;;;;0.20;0.20;;;12.30;99.90;;;;;;5090913;28;20284;-81
2022/05/14 00:04:24;;;;;;;0.10;0.10;;;12.20;99.90;;;;;;5082634;28;20520;-82
2022/05/14 00:06:51;;;;;;;0.20;0.20;;;12.20;99.90;;;;;;5083611;28;20200;-81
2022/05/14 00:09:16;;;;;;;0.20;0.20;;;12.20;99.90;;;;;;5062060;28;20439;-80
2022/05/14 00:14:26;;;;;;;0.10;0.10;;;12.10;99.90;;;;;;5086730;28;20286;-80
2022/05/14 00:16:52;;;;;;;0.10;0.10;;;12.10;99.90;;;;;;5085080;28;20444;-81
2022/05/14 00:19:18;;;;;;;0.10;0.10;;;12.00;99.90;;;;;;5083603;28;20238;-81
2022/05/14 00:21:43;;;;;;;0.10;0.10;;;12.00;99.90;;;;;;5069969;28;20209;-81
2022/05/14 00:24:09;;;;;;;0.10;0.10;;;11.90;99.90;;;;;;5079155;28;20435;-81
2022/05/14 00:26:37;;;;;;;0.20;0.20;;;11.90;99.90;;;;;;5088991;28;20348;-81
2022/05/14 00:29:06;;;;;;;0.10;0.10;;;11.90;99.90;;;;;;5085169;28;20438;-83
2022/05/14 00:31:32;;;;;;;0.20;0.20;;;11.90;99.90;;;;;;5087410;28;20446;-81
2022/05/14 00:33:58;;;;;;;0.10;0.10;;;11.90;99.90;;;;;;5067319;28;20443;-82
2022/05/14 00:36:23;;;;;;;0.10;0.10;;;11.80;99.90;;;;;;5087948;28;20443;-83
2022/05/14 00:38:49;;;;;;;0.20;0.20;;;11.90;99.90;;;;;;5088305;28;20204;-82
2022/05/14 00:41:15;;;;;;;0.20;0.20;;;11.80;99.90;;;;;;5068054;28;20660;-82
2022/05/14 00:43:50;;;;;;;0.20;0.20;;;11.80;99.90;;;;;;5087700;28;20200;-82
2022/05/14 00:46:35;;;;;;;0.20;0.20;;;11.80;99.90;;;;;;5070636;28;20446;-82
2022/05/14 00:49:00;;;;;;;0.10;0.10;;;11.80;99.90;;;;;;5084258;28;20439;-82
2022/05/14 00:51:28;;;;;;;0.10;0.10;;;11.70;99.90;;;;;;5081827;28;20529;-84
2022/05/14 00:54:18;;;;;;;0.10;0.10;;;11.70;99.90;;;;;;5087320;28;20189;-83
2022/05/14 00:56:49;;;;;;;0.10;0.10;;;11.70;99.90;;;;;;5089359;28;20506;-85
2022/05/14 00:59:18;;;;;;;0.10;0.10;;;11.60;99.90;;;;;;5088514;28;20423;-86
2022/05/14 01:01:45;;;;;;;0.20;0.20;;;11.70;99.90;;;;;;5087042;28;20487;-85
2022/05/14 01:04:11;;;;;;;0.10;0.10;;;11.60;99.90;;;;;;5064854;28;20458;-82
2022/05/14 01:06:41;;;;;;;0.20;0.20;;;11.60;99.90;;;;;;5085334;28;20435;-85
2022/05/14 01:09:07;;;;;;;0.10;0.10;;;11.70;99.90;;;;;;5089008;28;20430;-84
2022/05/14 01:11:35;;;;;;;0.40;0.40;;;11.80;99.90;;;;;;5088196;28;20931;-84
2022/05/14 01:14:01;;;;;;;0.30;0.30;;;11.70;99.90;;;;;;5070858;28;20446;-84
2022/05/14 01:16:27;;;;;;;0.30;0.30;;;11.80;99.90;;;;;;5085534;28;20978;-82
2022/05/14 01:18:52;;;;;;;0.20;0.20;;;11.80;99.90;;;;;;5068807;28;20439;-84
2022/05/14 01:21:40;;;;;;;0.30;0.30;;;11.80;99.90;;;;;;5080742;28;20219;-84
2022/05/14 01:27:13;;;;;;;0.10;0.10;;;11.90;99.90;;;;;;5088625;28;20483;-82
2022/05/14 01:29:42;;;;;;;0.10;0.10;;;11.90;99.90;;;;;;5086540;28;20442;-82
2022/05/14 01:32:08;;;;;;;0.10;0.10;;;11.90;99.90;;;;;;5090407;28;20169;-82
2022/05/14 01:34:35;;;;;;;0.10;0.10;;;11.80;99.90;;;;;;5086737;28;20462;-80
2022/05/14 01:37:01;;;;;;;0.10;0.10;;;11.90;99.90;;;;;;5088657;28;20848;-81
2022/05/14 01:39:27;;;;;;;0.10;0.10;;;11.90;99.90;;;;;;5090713;28;20447;-82
2022/05/14 01:41:54;;;;;;;0.10;0.10;;;11.90;99.90;;;;;;5093554;28;20506;-82
2022/05/14 01:44:20;;;;;;;0.20;0.20;;;11.90;99.90;;;;;;5092789;28;20451;-81
2022/05/14 01:46:46;;;;;;;0.10;0.10;;;11.90;99.90;;;;;;5091331;28;20456;-82
2022/05/14 01:49:12;;;;;;;0.10;0.10;;;11.90;99.90;;;;;;5087831;28;20950;-82
2022/05/14 01:51:38;;;;;;;0.10;0.10;;;12.00;99.90;;;;;;5090095;28;20267;-82
2022/05/14 01:54:04;;;;;;;0.10;0.10;;;12.00;99.90;;;;;;5090897;28;20442;-82
2022/05/14 01:56:30;;;;;;;0.17;0.17;;;12.00;99.90;;;;;;5092126;28;20450;-82
2022/05/14 01:58:55;;;;;;;0.20;0.20;;;12.00;99.90;;;;;;5092527;28;20439;-82
2022/05/14 02:01:28;;;;;;;0.10;0.10;;;12.10;99.90;;;;;;5090322;28;20692;-82
2022/05/14 02:04:03;;;;;;;0.20;0.20;;;12.10;99.90;;;;;;5071297;28;20716;-81
2022/05/14 02:06:29;;;;;;;0.10;0.10;;;12.10;99.90;;;;;;5088116;28;20469;-82
2022/05/14 02:08:56;;;;;;;0.10;0.10;;;12.10;99.90;;;;;;5074419;28;21114;-85
2022/05/14 02:11:22;;;;;;;0.20;0.20;;;12.10;99.90;;;;;;5071990;28;20435;-81
2022/05/14 02:13:50;;;;;;;0.20;0.20;;;12.10;99.90;;;;;;5076623;28;20480;-81
2022/05/14 02:16:16;;;;;;;0.17;0.17;;;12.10;99.90;;;;;;5089936;28;20453;-82
2022/05/14 02:18:42;;;;;;;0.10;0.10;;;12.10;99.90;;;;;;5089501;28;20798;-85
2022/05/14 02:21:09;;;;;;;0.10;0.10;;;12.10;99.90;;;;;;5086901;28;20478;-84
2022/05/14 02:23:37;;;;;;;0.10;0.10;;;12.10;99.90;;;;;;5083524;28;20186;-82
2022/05/14 02:26:05;;;;;;;0.10;0.10;;;12.10;99.90;;;;;;5090922;28;20443;-82
2022/05/14 02:28:31;;;;;;;0.10;0.10;;;12.10;99.90;;;;;;5091632;28;20835;-82
2022/05/14 02:30:57;;;;;;;0.20;0.20;;;12.10;99.90;;;;;;5091122;28;20443;-81
2022/05/14 02:33:22;;;;;;;0.10;0.10;;;12.20;99.90;;;;;;5072101;28;20439;-81
2022/05/14 02:35:48;;;;;;;0.10;0.10;;;12.20;99.90;;;;;;5084046;28;20185;-81
2022/05/14 02:38:15;;;;;;;0.20;0.20;;;12.10;99.90;;;;;;5070879;28;20205;-83
2022/05/14 02:40:42;;;;;;;0.10;0.10;;;12.20;99.90;;;;;;5071284;28;20220;-82
2022/05/14 02:43:07;;;;;;;0.60;0.60;;;12.20;99.90;;;;;;5085128;28;20984;-82
2022/05/14 02:45:33;;;;;;;0.10;0.10;;;12.20;99.90;;;;;;5073689;28;20439;-84
2022/05/14 02:47:58;;;;;;;0.20;0.20;;;12.20;99.90;;;;;;5089925;28;20181;-83
2022/05/14 02:50:24;;;;;;;0.30;0.30;;;12.20;99.90;;;;;;5088632;28;20192;-82
2022/05/14 02:52:51;;;;;;;0.20;0.20;;;12.20;99.90;;;;;;5068374;28;20877;-83
2022/05/14 02:55:17;;;;;;;0.10;0.10;;;12.20;99.90;;;;;;5082599;28;20296;-81
2022/05/14 02:57:42;;;;;;;0.13;0.13;;;12.20;99.90;;;;;;5091663;28;20535;-81
2022/05/14 03:00:11;;;;;;;0.10;0.10;;;12.20;99.90;;;;;;5088466;28;20211;-81
2022/05/14 03:02:37;;;;;;;0.10;0.10;;;12.10;99.90;;;;;;5071175;28;20238;-82
2022/05/14 03:05:04;;;;;;;0.10;0.10;;;12.20;99.90;;;;;;5090819;28;20435;-82
2022/05/14 03:07:29;;;;;;;0.20;0.20;;;12.20;99.90;;;;;;5072119;28;20926;-82
2022/05/14 03:09:55;;;;;;;0.10;0.10;;;12.20;99.90;;;;;;5086235;28;20481;-82
2022/05/14 03:12:22;;;;;;;0.10;0.10;;;12.10;99.90;;;;;;5090098;28;20193;-82
2022/05/14 03:14:49;;;;;;;0.10;0.10;;;12.10;99.90;;;;;;5089650;28;20207;-81
2022/05/14 03:17:15;;;;;;;0.10;0.10;;;12.10;99.90;;;;;;5067167;28;20443;-83
2022/05/14 03:19:41;;;;;;;0.10;0.10;;;12.20;99.90;;;;;;5064727;28;20477;-84
2022/05/14 03:22:07;;;;;;;0.10;0.10;;;12.10;99.90;;;;;;5069984;28;20483;-84
2022/05/14 03:24:33;;;;;;;0.10;0.10;;;12.10;99.90;;;;;;5087223;28;20182;-81
2022/05/14 03:27:00;;;;;;;0.20;0.20;;;12.20;99.90;;;;;;5066011;28;20451;-82
2022/05/14 03:29:25;;;;;;;0.10;0.10;;;12.20;99.90;;;;;;5070983;28;20588;-81
2022/05/14 03:31:51;;;;;;;0.10;0.10;;;12.10;99.90;;;;;;5090370;28;20534;-81
2022/05/14 03:34:17;;;;;;;0.10;0.10;;;12.10;99.90;;;;;;5090049;28;20199;-82
2022/05/14 03:36:44;;;;;;;0.10;0.10;;;12.20;99.90;;;;;;5089988;28;20261;-81
2022/05/14 03:39:10;;;;;;;0.10;0.10;;;12.20;99.90;;;;;;5070568;28;20530;-82
2022/05/14 03:41:36;;;;;;;0.10;0.10;;;12.20;99.90;;;;;;5062894;28;20602;-82
2022/05/14 03:44:02;;;;;;;0.10;0.10;;;12.20;99.90;;;;;;5067575;28;20190;-83
2022/05/14 03:46:28;;;;;;;0.10;0.10;;;12.20;99.90;;;;;;5085601;28;20447;-82
2022/05/14 03:48:54;;;;;;;0.20;0.20;;;12.10;99.90;;;;;;5088675;28;20850;-81
2022/05/14 03:51:19;;;;;;;0.20;0.20;;;12.20;99.90;;;;;;5088654;28;20304;-81
2022/05/14 03:53:45;;;;;;;0.20;0.20;;;12.10;99.90;;;;;;5089056;28;20186;-81
2022/05/14 03:56:11;;;;;;;0.10;0.10;;;12.20;99.90;;;;;;5069314;28;20402;-81
2022/05/14 03:58:37;;;;;;;0.10;0.10;;;12.10;99.90;;;;;;5089880;28;20696;-83
2022/05/14 04:01:04;;;;;;;0.10;0.10;;;12.10;99.90;;;;;;5087260;28;20221;-81
2022/05/14 04:03:31;;;;;;;0.10;0.10;;;12.20;99.90;;;;;;5069281;28;20440;-82
2022/05/14 04:05:56;;;;;;;0.20;0.20;;;12.20;99.90;;;;;;5071074;28;20443;-83
2022/05/14 04:08:22;;;;;;;0.10;0.10;;;12.10;99.90;;;;;;5088612;28;20526;-83
2022/05/14 04:10:47;;;;;;;0.10;0.10;;;12.10;99.90;;;;;;5089156;28;20268;-84
2022/05/14 04:13:13;;;;;;;0.20;0.20;;;12.10;99.90;;;;;;5087003;28;20223;-83
2022/05/14 04:15:39;;;;;;;0.13;0.13;;;12.10;99.90;;;;;;5090634;28;20579;-83
2022/05/14 04:18:05;;;;;;;0.10;0.10;;;12.10;99.90;;;;;;5088668;28;20197;-83
2022/05/14 04:20:30;;;;;;;0.10;0.10;;;12.10;99.90;;;;;;5089304;28;20539;-82
2022/05/14 04:22:56;;;;;;;0.10;0.10;;;12.10;99.90;;;;;;5089381;28;20193;-83
2022/05/14 04:25:23;;;;;;;0.17;0.17;;;12.10;99.90;;;;;;5089791;28;20173;-82
2022/05/14 04:27:48;;;;;;;0.10;0.10;;;12.10;99.90;;;;;;5087216;28;20444;-82
2022/05/14 04:30:15;;;;;;;0.10;0.10;;;12.10;99.90;;;;;;5066171;28;20821;-82
2022/05/14 04:32:41;;;;;;;0.10;0.10;;;12.20;99.90;;;;;;5070008;28;20193;-80
2022/05/14 04:35:08;;;;;;;0.10;0.10;;;12.20;99.90;;;;;;5084731;28;20508;-81
2022/05/14 04:37:34;;;;;;;0.10;0.10;;;12.20;99.90;;;;;;5090112;28;20415;-82
2022/05/14 04:40:00;;;;;;;0.20;0.20;;;12.20;99.90;;;;;;5088036;28;20999;-82
2022/05/14 04:42:25;;;;;;;0.20;0.20;;;12.20;99.90;;;;;;5080277;28;20455;-81
2022/05/14 04:44:51;;;;;;;0.10;0.10;;;12.20;99.90;;;;;;5089974;28;20193;-81
2022/05/14 04:47:17;;;;;;;0.10;0.10;;;12.20;99.90;;;;;;5088777;28;20199;-81
2022/05/14 04:49:46;;;;;;;0.20;0.20;;;12.20;99.90;;;;;;5070724;28;20439;-80
2022/05/14 04:52:12;;;;;;;0.10;0.10;;;12.20;99.90;;;;;;5078815;28;20491;-80
2022/05/14 04:54:38;;;;;;;0.10;0.10;;;12.20;99.90;;;;;;5059586;28;20439;-80
2022/05/14 04:57:04;;;;;;;0.20;0.20;;;12.30;99.90;;;;;;5088401;28;20246;-80
2022/05/14 04:59:30;;;;;;;0.10;0.10;;;12.30;99.90;;;;;;5078670;28;20439;-81
2022/05/14 05:04:41;;;;;;;0.10;0.10;;;12.30;99.90;;;;;;5075768;28;20741;-81
2022/05/14 05:07:07;;;;;;;0.10;0.10;;;12.30;99.90;;;;;;5077641;28;20529;-81
2022/05/14 05:09:33;;;;;;;0.10;0.10;;;12.40;99.90;;;;;;5082851;28;20571;-81
2022/05/14 05:11:59;;;;;;;0.10;0.10;;;12.40;99.90;;;;;;5087482;28;20268;-81
2022/05/14 05:14:25;;;;;;;0.20;0.20;;;12.30;99.90;;;;;;5090206;28;20189;-82
2022/05/14 05:16:51;;;;;;;0.10;0.10;;;12.40;99.90;;;;;;5086624;28;20458;-80
2022/05/14 05:19:20;;;;;;;0.10;0.10;;;12.40;99.90;;;;;;5072878;28;20443;-80
2022/05/14 05:21:45;;;;;;;0.17;0.17;;;12.40;99.90;;;;;;5092165;28;20221;-80
2022/05/14 05:24:11;;;;;;;0.30;0.30;;;12.40;99.90;;;;;;5089556;28;20466;-82
2022/05/14 05:26:37;;;;;;;0.20;0.20;;;12.40;99.90;;;;;;5092007;28;20229;-82
2022/05/14 05:29:04;;;;;;;0.10;0.10;;;12.50;99.90;;;;;;5087701;28;20181;-81
2022/05/14 05:31:31;;;;;;;0.20;0.20;;;12.60;99.90;;;;;;5090108;28;20445;-81
2022/05/14 05:33:57;;;;;;;0.10;0.10;;;12.60;99.90;;;;;;5091936;28;20446;-80
2022/05/14 05:36:23;;;;;;;0.10;0.10;;;12.60;99.90;;;;;;5087612;28;20446;-83
2022/05/14 05:38:48;;;;;;;0.20;0.20;;;12.70;99.90;;;;;;5070439;28;20954;-82
2022/05/14 05:41:14;;;;;;;0.10;0.10;;;12.80;99.90;;;;;;5069910;28;20216;-84
2022/05/14 05:43:39;;;;;;;0.20;0.20;;;12.90;99.90;;;;;;5091240;28;20298;-83
2022/05/14 05:46:05;;;;;;;0.20;0.20;;;13.00;99.90;;;;;;5073039;28;20220;-85
2022/05/14 05:48:30;;;;;;;0.10;0.10;;;13.00;99.90;;;;;;5069518;28;20228;-80
2022/05/14 05:50:56;;;;;;;0.20;0.20;;;13.00;99.90;;;;;;5090427;28;20241;-81
2022/05/14 05:56:46;;;;;;;0.17;0.17;;;13.00;99.90;;;;;;5090998;28;20189;-83
2022/05/14 05:58:51;;;;;;;0.20;0.20;;;13.20;99.90;;;;;;5090793;28;20864;-82
2022/05/14 06:01:17;;;;;;;0.10;0.10;;;13.40;99.90;;;;;;5088672;28;20490;-82
2022/05/14 06:03:42;;;;;;;0.10;0.10;;;13.30;99.90;;;;;;5065254;28;20196;-82
2022/05/14 06:06:08;;;;;;;0.23;0.23;;;13.40;99.90;;;;;;5091176;28;20246;-81
2022/05/14 06:08:34;;;;;;;0.20;0.20;;;13.40;99.90;;;;;;5091194;28;20535;-81
2022/05/14 06:11:00;;;;;;;0.20;0.20;;;13.40;99.90;;;;;;5089938;28;20293;-81
2022/05/14 06:13:26;;;;;;;0.23;0.23;;;13.40;99.90;;;;;;5091674;28;20892;-82
2022/05/14 06:15:52;;;;;;;0.20;0.20;;;13.40;99.90;;;;;;5089881;28;20236;-83
2022/05/14 06:18:18;;;;;;;0.50;0.50;;;13.30;99.90;;;;;;5090537;28;20185;-84
2022/05/14 06:20:46;;;;;;;0.40;0.40;;;13.40;99.90;;;;;;5088720;28;21351;-83
2022/05/14 06:23:12;;;;;;;0.20;0.20;;;13.60;99.90;;;;;;5087365;28;20189;-84
2022/05/14 06:25:37;;;;;;;0.10;0.10;;;13.60;99.90;;;;;;5091135;28;20500;-83
2022/05/14 06:28:03;;;;;;;0.20;0.20;;;13.70;99.90;;;;;;5092171;28;20183;-84
2022/05/14 06:30:30;;;;;;;0.20;0.20;;;13.60;99.90;;;;;;5089910;28;20193;-82
2022/05/14 06:33:02;;;;;;;0.10;0.10;;;13.60;99.90;;;;;;5083722;28;20500;-82
2022/05/14 06:35:27;;;;;;;0.10;0.10;;;13.60;99.90;;;;;;5090092;28;20446;-82
2022/05/14 06:37:53;;;;;;;0.10;0.10;;;13.60;99.90;;;;;;5070322;28;20447;-81
2022/05/14 06:40:18;;;;;;;0.10;0.10;;;13.60;99.90;;;;;;5088765;28;20593;-82
2022/05/14 06:42:44;;;;;;;0.10;0.10;;;13.90;99.90;;;;;;5089069;28;20240;-81
2022/05/14 06:45:10;;;;;;;0.10;0.10;;;14.10;99.90;;;;;;5066797;28;20181;-82
2022/05/14 06:47:35;;;;;;;0.10;0.10;;;14.10;99.90;;;;;;5087250;28;20193;-82
2022/05/14 06:50:01;;;;;;;0.10;0.10;;;14.10;99.90;;;;;;5088092;28;20451;-83
2022/05/14 06:52:27;;;;;;;0.20;0.20;;;14.00;99.90;;;;;;5082950;28;20240;-84
2022/05/14 06:54:55;;;;;;;0.10;0.10;;;14.10;99.90;;;;;;5069124;28;20188;-82
2022/05/14 06:57:21;;;;;;;0.10;0.10;;;14.30;99.90;;;;;;5089148;28;20197;-83
2022/05/14 06:59:47;;;;;;;0.10;0.10;;;14.50;99.90;;;;;;5085384;28;20450;-82
2022/05/14 07:02:14;;;;;;;0.60;0.60;;;14.60;99.90;;;;;;5090271;28;20285;-83
2022/05/14 07:07:24;;;;;;;0.10;0.10;;;15.00;99.90;;;;;;5085833;28;20488;-82
2022/05/14 07:09:50;;;;;;;0.10;0.10;;;14.90;99.90;;;;;;5090063;28;20435;-83
2022/05/14 07:12:16;;;;;;;0.10;0.10;;;14.90;99.90;;;;;;5084374;28;20182;-82
2022/05/14 07:14:44;;;;;;;0.13;0.13;;;14.80;99.90;;;;;;5077851;28;20439;-84
2022/05/14 07:17:10;;;;;;;0.10;0.10;;;14.70;99.90;;;;;;5071773;28;20260;-81
2022/05/14 07:19:37;;;;;;;0.10;0.10;;;14.50;99.90;;;;;;5073285;28;20543;-82
2022/05/14 07:22:02;;;;;;;0.10;0.10;;;14.60;99.90;;;;;;5071351;28;20497;-82
2022/05/14 07:24:29;;;;;;;0.10;0.10;;;14.30;99.90;;;;;;5088359;28;20485;-83
2022/05/14 07:26:57;;;;;;;0.10;0.10;;;14.20;99.90;;;;;;5087994;28;20208;-84
2022/05/14 07:29:25;;;;;;;0.10;0.10;;;14.40;99.90;;;;;;5088440;28;20820;-81
2022/05/14 07:31:50;;;;;;;0.10;0.10;;;14.80;99.90;;;;;;5068199;28;20950;-82
2022/05/14 07:34:16;;;;;;;0.10;0.10;;;14.70;99.90;;;;;;5087280;28;20443;-82
2022/05/14 07:36:46;;;;;;;0.10;0.10;;;14.70;99.90;;;;;;5090207;28;20663;-81
2022/05/14 07:39:13;;;;;;;0.10;0.10;;;14.90;99.90;;;;;;5083746;28;20212;-81
2022/05/14 07:41:42;;;;;;;0.10;0.10;;;15.10;99.90;;;;;;5084512;28;20483;-81
2022/05/14 07:44:09;;;;;;;0.10;0.10;;;15.40;99.90;;;;;;5082889;28;20468;-82
2022/05/14 07:46:36;;;;;;;0.10;0.10;;;15.20;99.90;;;;;;5071635;28;20795;-83
2022/05/14 07:49:05;;;;;;;0.10;0.10;;;14.90;99.90;;;;;;5083347;28;20455;-80
2022/05/14 07:51:31;;;;;;;0.20;0.20;;;15.00;99.90;;;;;;5085655;28;20478;-84
2022/05/14 07:53:56;;;;;;;0.20;0.20;;;15.30;99.90;;;;;;5087877;28;20446;-81
2022/05/14 07:56:22;;;;;;;0.20;0.20;;;15.40;99.90;;;;;;5086173;28;20189;-83
2022/05/14 07:58:47;;;;;;;0.10;0.10;;;15.20;99.90;;;;;;5091587;28;20261;-81
2022/05/14 08:01:13;;;;;;;0.10;0.10;;;15.60;99.90;;;;;;5088483;28;20672;-82
2022/05/14 08:03:39;;;;;;;0.10;0.10;;;15.80;99.90;;;;;;5076293;28;20185;-83
2022/05/14 08:06:05;;;;;;;0.10;0.10;;;16.10;99.90;;;;;;5087982;28;20796;-79
2022/05/14 08:08:31;;;;;;;0.10;0.10;;;16.10;99.90;;;;;;5089652;28;20232;-80
2022/05/14 08:10:57;;;;;;;0.10;0.10;;;15.70;99.90;;;;;;5075163;28;20238;-81
2022/05/14 08:13:24;;;;;;;0.10;0.10;;;15.80;99.90;;;;;;5074957;28;20901;-83
2022/05/14 08:15:53;;;;;;;0.20;0.20;;;16.20;99.90;;;;;;5090657;28;20230;-81
2022/05/14 08:18:19;;;;;;;0.10;0.10;;;16.10;99.90;;;;;;5067869;28;20461;-83
2022/05/14 08:20:47;;;;;;;0.10;0.10;;;16.40;99.90;;;;;;5086792;28;20495;-83
2022/05/14 08:25:59;;;;;;;0.10;0.10;;;16.80;99.90;;;;;;5092534;28;20480;-83
2022/05/14 08:28:25;;;;;;;0.10;0.10;;;16.30;99.90;;;;;;5090503;28;20447;-83
2022/05/14 08:30:51;;;;;;;0.20;0.20;;;15.80;99.90;;;;;;5066808;28;20455;-83
2022/05/14 08:33:17;;;;;;;0.10;0.10;;;15.90;99.90;;;;;;5082704;28;20488;-81
2022/05/14 08:35:46;;;;;;;0.20;0.20;;;16.10;99.90;;;;;;5090020;28;20470;-81
2022/05/14 08:38:14;;;;;;;0.10;0.10;;;16.00;99.90;;;;;;5070812;28;20184;-85
2022/05/14 08:40:44;;;;;;;0.10;0.10;;;15.60;99.90;;;;;;5083880;28;21260;-83
2022/05/14 08:43:19;;;;;;;0.10;0.10;;;15.50;99.90;;;;;;5089992;28;20843;-81
2022/05/14 08:45:45;;;;;;;0.20;0.20;;;15.40;99.90;;;;;;5088784;28;20434;-81
2022/05/14 08:48:32;;;;;;;0.10;0.10;;;15.40;99.90;;;;;;5071868;28;20954;-79
2022/05/14 08:51:05;;;;;;;0.10;0.10;;;15.60;99.90;;;;;;5083738;28;20517;-80
2022/05/14 08:53:33;;;;;;;0.20;0.20;;;16.00;99.90;;;;;;5059272;28;20460;-82
2022/05/14 08:56:25;;;;;;;0.10;0.10;;;16.10;99.90;;;;;;5066885;28;20502;-79
2022/05/14 08:59:21;;;;;;;0.10;0.10;;;16.40;99.90;;;;;;5066483;28;20451;-80
2022/05/14 09:01:48;;;;;;;0.10;0.10;;;16.70;99.90;;;;;;5058944;28;20940;-83
2022/05/14 09:04:20;;;;;;;0.10;0.10;;;16.00;99.90;;;;;;5062804;28;21275;-82
2022/05/14 09:06:47;;;;;;;0.10;0.10;;;16.60;99.90;;;;;;5060854;28;20500;-81
2022/05/14 09:09:13;;;;;;;0.10;0.10;;;16.90;99.90;;;;;;5066035;28;20481;-80
2022/05/14 09:11:54;;;;;;;0.10;0.10;;;17.40;99.90;;;;;;5061266;28;20475;-81
2022/05/14 09:14:39;;;;;;;0.10;0.10;;;16.80;99.90;;;;;;5066779;28;20525;-82
2022/05/14 09:17:12;;;;;;;0.10;0.10;;;16.60;99.90;;;;;;5067301;28;20463;-81
2022/05/14 09:19:40;;;;;;;0.10;0.10;;;16.80;99.90;;;;;;5064302;28;20498;-80
2022/05/14 09:22:22;;;;;;;0.10;0.10;;;16.80;99.90;;;;;;5067013;28;20512;-82
2022/05/14 09:24:59;;;;;;;0.10;0.10;;;17.00;99.90;;;;;;5064983;28;20527;-79
2022/05/14 09:27:44;;;;;;;0.10;0.10;;;17.50;99.90;;;;;;5068565;28;20561;-82
2022/05/14 09:30:35;;;;;;;0.10;0.10;;;17.40;99.90;;;;;;5066119;28;20432;-81
2022/05/14 09:33:02;;;;;;;0.10;0.10;;;17.00;99.90;;;;;;5053041;28;20511;-83
2022/05/14 09:35:33;;;;;;;0.10;0.10;;;17.20;99.90;;;;;;5066217;28;20451;-79
2022/05/14 09:38:22;;;;;;;0.10;0.10;;;17.40;99.90;;;;;;5067672;28;20459;-79
2022/05/14 09:40:48;;;;;;;0.10;0.10;;;17.20;99.90;;;;;;5063830;28;20475;-79
2022/05/14 09:43:16;;;;;;;0.10;0.10;;;17.10;99.90;;;;;;5066176;28;20440;-79
2022/05/14 09:45:56;;;;;;;0.10;0.10;;;17.40;99.90;;;;;;5066359;28;20652;-80
2022/05/14 09:48:28;;;;;;;0.10;0.10;;;17.60;99.90;;;;;;5067439;28;21041;-81
2022/05/14 09:51:00;;;;;;;0.10;0.10;;;18.40;99.90;;;;;;5051775;28;20440;-80
2022/05/14 09:53:28;;;;;;;0.00;0.00;;;18.30;99.90;;;;;;5039493;28;20608;-79
2022/05/14 09:55:54;;;;;;;0.10;0.10;;;18.30;99.90;;;;;;5047657;28;20445;-82
2022/05/14 09:58:58;;;;;;;0.10;0.10;;;18.40;99.90;;;;;;5048727;28;20531;-85
2022/05/14 10:01:26;;;;;;;0.10;0.10;;;17.90;99.90;;;;;;5044424;28;20321;-83
2022/05/14 10:04:10;;;;;;;0.10;0.10;;;17.40;99.90;;;;;;5049376;28;21008;-87
2022/05/14 10:06:47;;;;;;;0.07;0.00;;;17.40;99.90;;;;;;5045365;28;20502;-86
2022/05/14 10:09:37;;;;;;;0.10;0.10;;;17.50;99.90;;;;;;5051758;28;20449;-84
2022/05/14 10:12:06;;;;;;;0.10;0.10;;;17.90;99.90;;;;;;5048743;28;20440;-90
2022/05/14 10:14:49;;;;;;;0.10;0.00;;;18.40;99.90;;;;;;5047187;28;20445;-84
2022/05/14 10:18:03;;;;;;;0.10;0.10;;;18.10;99.90;;;;;;5043506;28;20451;-85
2022/05/14 10:20:42;;;;;;;0.10;0.10;;;17.60;99.90;;;;;;5043383;28;20504;-81
2022/05/14 10:26:46;;;;;;;0.10;0.10;;;18.60;99.90;;;;;;5045450;28;20540;-81
2022/05/14 10:29:30;;;;;;;0.10;0.10;;;18.20;99.90;;;;;;5046642;28;20912;-80
2022/05/14 10:31:59;;;;;;;0.10;0.10;;;18.70;99.90;;;;;;5049761;28;20448;-79
2022/05/14 10:34:40;;;;;;;0.10;0.00;;;18.00;99.90;;;;;;5050258;28;20448;-82
2022/05/14 10:37:21;;;;;;;0.00;0.00;;;17.20;99.90;;;;;;5046699;28;20483;-83
2022/05/14 10:40:04;;;;;;;0.10;0.10;;;16.90;99.90;;;;;;5044428;28;20492;-81
2022/05/14 10:42:52;;;;;;;0.10;0.10;;;17.40;99.90;;;;;;5063372;28;20506;-80
2022/05/14 10:45:21;;;;;;;0.10;0.10;;;17.20;99.90;;;;;;5044500;28;20447;-82
2022/05/14 10:48:17;;;;;;;0.10;0.10;;;18.00;99.90;;;;;;5051624;28;20421;-82
2022/05/14 10:50:43;;;;;;;0.10;0.10;;;18.80;99.90;;;;;;5045809;28;20528;-81
2022/05/14 10:53:10;;;;;;;0.00;0.00;;;19.40;99.90;;;;;;5073758;28;20500;-84
2022/05/14 10:56:06;;;;;;;0.00;0.00;;;19.80;99.90;;;;;;5090186;28;20177;-83
2022/05/14 10:58:45;;;;;;;0.10;0.10;;;19.60;99.90;;;;;;5076061;28;20432;-84
2022/05/14 11:01:52;;;;;;;0.10;0.10;;;18.90;99.90;;;;;;5085152;28;20490;-83
2022/05/14 11:04:29;;;;;;;0.00;0.00;;;18.20;99.90;;;;;;4984289;28;20809;-80
2022/05/14 11:07:03;;;;;;;0.00;0.00;;;17.50;99.90;;;;;;5077278;28;20815;-78
2022/05/14 11:09:39;;;;;;;0.10;0.10;;;17.40;99.90;;;;;;5086392;28;20457;-79
2022/05/14 11:12:12;;;;;;;0.20;0.20;;;17.50;99.90;;;;;;5088496;28;20578;-78
2022/05/14 11:14:51;;;;;;;0.20;0.20;;;17.30;99.90;;;;;;5085239;28;20442;-81
2022/05/14 11:17:33;;;;;;;0.10;0.10;;;17.30;99.90;;;;;;5065868;28;20891;-80
2022/05/14 11:20:02;;;;;;;0.10;0.10;;;17.60;99.90;;;;;;5065433;28;20443;-83
2022/05/14 11:22:35;;;;;;;0.10;0.10;;;18.10;99.90;;;;;;5089138;28;20484;-78
2022/05/14 11:25:22;;;;;;;0.00;0.00;;;18.90;99.90;;;;;;5081009;28;20443;-82
2022/05/14 11:28:12;;;;;;;0.00;0.00;;;19.70;99.90;;;;;;5090069;28;20492;-83
2022/05/14 11:30:54;;;;;;;0.00;0.00;;;20.20;99.90;;;;;;5088016;28;20439;-82
2022/05/14 11:33:27;;;;;;;0.00;0.00;;;20.90;99.90;;;;;;5089394;28;20790;-82
2022/05/14 11:35:59;;;;;;;0.00;0.00;;;20.90;99.90;;;;;;5089507;28;20435;-82
2022/05/14 11:38:24;;;;;;;0.00;0.00;;;21.30;99.90;;;;;;5090789;28;20427;-83
2022/05/14 11:41:03;;;;;;;0.00;0.00;;;22.30;99.90;;;;;;5089983;28;20977;-80
2022/05/14 11:43:44;;;;;;;0.00;0.00;;;22.40;99.90;;;;;;5069914;28;20660;-79
2022/05/14 11:46:09;;;;;;;0.00;0.00;;;22.20;99.90;;;;;;5084737;28;20435;-80
2022/05/14 11:48:49;;;;;;;0.00;0.00;;;22.00;99.90;;;;;;5087364;28;20466;-82
2022/05/14 11:51:42;;;;;;;0.00;0.00;;;21.60;99.90;;;;;;5090172;28;20193;-82
2022/05/14 11:54:30;;;;;;;0.00;0.00;;;22.00;99.90;;;;;;5075380;28;20455;-85
2022/05/14 11:57:17;;;;;;;0.00;0.00;;;21.00;99.90;;;;;;5089561;28;20511;-83
2022/05/14 11:59:56;;;;;;;0.00;0.00;;;21.00;99.90;;;;;;5086502;28;20839;-83
2022/05/14 12:02:52;;;;;;;0.00;0.00;;;21.60;99.90;;;;;;5072076;28;20458;-83
2022/05/14 12:05:25;;;;;;;0.00;0.00;;;21.10;99.90;;;;;;5086301;28;20965;-84
2022/05/14 12:08:11;;;;;;;0.00;0.00;;;20.90;99.90;;;;;;5090158;28;20447;-83
2022/05/14 12:10:51;;;;;;;0.00;0.00;;;21.20;99.90;;;;;;5089547;28;20470;-83
2022/05/14 12:13:28;;;;;;;0.00;0.00;;;21.50;99.90;;;;;;5071516;28;20447;-83
2022/05/14 12:15:58;;;;;;;0.00;0.00;;;21.30;99.90;;;;;;5089989;28;20443;-84
2022/05/14 12:18:25;;;;;;;0.00;0.00;;;21.10;99.90;;;;;;5088311;28;20423;-83
2022/05/14 12:21:09;;;;;;;0.00;0.00;;;20.90;99.90;;;;;;5086421;28;20491;-83
2022/05/14 12:23:37;;;;;;;0.00;0.00;;;21.20;99.90;;;;;;5090041;28;20411;-84
2022/05/14 12:26:23;;;;;;;0.00;0.00;;;22.30;99.90;;;;;;5090617;28;21031;-84
2022/05/14 12:28:50;;;;;;;0.00;0.00;;;21.30;99.90;;;;;;5085434;28;20450;-82
2022/05/14 12:34:15;;;;;;;0.00;0.00;;;21.70;99.90;;;;;;5087666;28;20461;-84
2022/05/14 12:36:52;;;;;;;0.00;0.00;;;21.60;99.90;;;;;;5082217;28;20443;-81
2022/05/14 12:39:28;;;;;;;0.00;0.00;;;21.70;99.90;;;;;;5070546;28;20451;-82
2022/05/14 12:41:59;;;;;;;0.00;0.00;;;21.90;99.90;;;;;;5088458;28;20803;-83
2022/05/14 12:44:28;;;;;;;0.00;0.00;;;22.00;99.90;;;;;;5089482;28;20445;-83
2022/05/14 12:46:56;;;;;;;0.00;0.00;;;22.00;99.90;;;;;;5087730;28;20447;-84
2022/05/14 12:49:28;;;;;;;0.00;0.00;;;22.10;99.90;;;;;;5086582;28;20518;-81
2022/05/14 12:52:03;;;;;;;0.00;0.00;;;22.60;99.90;;;;;;5086976;28;20523;-81
2022/05/14 12:54:31;;;;;;;0.00;0.00;;;23.20;99.90;;;;;;5085575;28;20526;-80
2022/05/14 12:57:00;;;;;;;0.00;0.00;;;23.10;99.90;;;;;;5088829;28;20916;-81
2022/05/14 12:59:27;;;;;;;0.00;0.00;;;22.20;99.90;;;;;;5081547;28;20451;-79
2022/05/14 13:01:59;;;;;;;0.00;0.00;;;21.60;99.90;;;;;;5087265;28;21024;-81
2022/05/14 13:04:42;;;;;;;0.00;0.00;;;21.70;99.90;;;;;;5069936;28;20434;-81
2022/05/14 13:07:11;;;;;;;0.00;0.00;;;21.50;99.90;;;;;;5087503;28;21037;-80
2022/05/14 13:09:39;;;;;;;0.00;0.00;;;21.40;99.90;;;;;;5083679;28;20435;-82
2022/05/14 13:12:05;;;;;;;0.00;0.00;;;21.30;99.90;;;;;;5080350;28;20439;-82
2022/05/14 13:14:34;;;;;;;0.00;0.00;;;20.00;99.90;;;;;;5088845;28;21113;-85
2022/05/14 13:17:03;;;;;;;0.00;0.00;;;21.00;99.90;;;;;;5079714;28;20883;-82
2022/05/14 13:19:49;;;;;;;0.00;0.00;;;20.80;99.90;;;;;;5067723;28;20523;-85
2022/05/14 13:22:33;;;;;;;0.00;0.00;;;21.20;99.90;;;;;;5081855;28;20548;-86
2022/05/14 13:25:01;;;;;;;0.00;0.00;;;21.40;99.90;;;;;;5078537;28;20435;-86
2022/05/14 13:27:31;;;;;;;0.00;0.00;;;21.40;99.90;;;;;;5082068;28;21115;-85